59CL weather

O'Connell Brothers Airport
Brawley, California, United States

Public forecast

Using degrees Fahrenheit for public forecast. Weather courtesy of forecast.io.

METAR (pilot weather report)

Closest report is Imperial County Airport, 7.9 nm (14.7 km) SSW. Retrieved 2019/08/26 08:53 UTC (28 minutes ago):

KIPL 260853Z AUTO 17003KT 10SM CLR 32/15 A2977 RMK AO2 SLP080 T03220150 56005

TAF (pilot weather forecast)

Closest forecast is Imperial County Airport, 7.9 nm (14.7 km) SSW. Retrieved 2019/08/26 06:22 UTC (3 hours ago):

TAF KIPL 260520Z 2606/2706 26006KT P6SM BKN250 FM260800 VRB05KT P6SM BKN250 FM261400 13006KT P6SM SCT250